createdAt,value
2022-09-23T05:19:11.891Z,97299.28
2022-09-23T05:21:40.306Z,97299.47
2022-09-23T05:24:08.898Z,97295.94
2022-09-23T05:26:36.561Z,97297.09
2022-09-23T05:29:04.477Z,97302.63
2022-09-23T05:31:32.544Z,97298.06
2022-09-23T05:34:03.650Z,97306.34
2022-09-23T05:36:37.114Z,97305.34
2022-09-23T05:39:06.560Z,97320.09
2022-09-23T05:41:34.655Z,97317.19
2022-09-23T05:44:02.737Z,97307.25
2022-09-23T05:46:31.188Z,97325.09
2022-09-23T05:49:02.458Z,97329.03
2022-09-23T05:51:31.709Z,97329.00
2022-09-23T05:54:00.268Z,97329.03
2022-09-23T05:56:28.397Z,97326.84
2022-09-23T05:58:57.704Z,97325.84
2022-09-23T06:01:29.435Z,97328.50
2022-09-23T06:03:57.885Z,97320.41
2022-09-23T06:06:36.582Z,97319.78
2022-09-23T06:09:05.275Z,97319.06
2022-09-23T06:11:34.613Z,97320.72
2022-09-23T06:14:02.985Z,97322.84
2022-09-23T06:16:32.758Z,97324.09
2022-09-23T06:19:05.873Z,97323.78
2022-09-23T06:21:36.081Z,97324.50
2022-09-23T06:24:04.719Z,97323.38
2022-09-23T06:26:35.660Z,97329.66
2022-09-23T06:29:04.192Z,97329.66
2022-09-23T06:31:33.122Z,97325.81
2022-09-23T06:34:12.402Z,97340.56
2022-09-23T06:36:45.103Z,97338.50
2022-09-23T06:39:14.985Z,97342.50
2022-09-23T06:41:44.893Z,97347.59
2022-09-23T06:44:14.176Z,97351.53
2022-09-23T06:46:42.076Z,97350.78
2022-09-23T06:49:12.637Z,97350.53
2022-09-23T06:51:40.367Z,97353.94
2022-09-23T06:54:08.514Z,97362.50
2022-09-23T06:56:39.566Z,97361.31
2022-09-23T06:59:09.363Z,97353.63
2022-09-23T07:01:37.187Z,97365.50
2022-09-23T07:04:05.291Z,97363.47
2022-09-23T07:06:33.275Z,97367.09
2022-09-23T07:09:01.232Z,97372.31
2022-09-23T07:11:29.212Z,97369.59
2022-09-23T07:13:57.163Z,97374.38
2022-09-23T07:16:25.278Z,97363.53
2022-09-23T07:18:53.656Z,97380.84
2022-09-23T07:21:21.627Z,97375.25
2022-09-23T07:23:50.487Z,97381.13
2022-09-23T07:26:19.181Z,97385.06
2022-09-23T07:28:47.254Z,97381.28
2022-09-23T07:31:24.277Z,97384.56
2022-09-23T07:33:57.932Z,97384.22
2022-09-23T07:36:28.021Z,97383.38
2022-09-23T07:39:00.775Z,97383.50
2022-09-23T07:41:29.083Z,97380.25
2022-09-23T07:43:59.067Z,97385.63
2022-09-23T07:46:28.187Z,97386.06
2022-09-23T07:48:56.033Z,97387.44
2022-09-23T07:51:26.523Z,97388.69
2022-09-23T07:53:54.697Z,97393.09
2022-09-23T07:56:25.549Z,97398.22
2022-09-23T07:59:04.651Z,97400.63
2022-09-23T08:01:39.532Z,97401.59
2022-09-23T08:04:21.291Z,97396.44
2022-09-23T08:06:54.102Z,97404.25
2022-09-23T08:09:23.714Z,97403.75
2022-09-23T08:11:51.684Z,97404.00
2022-09-23T08:14:22.415Z,97412.53
2022-09-23T08:16:50.260Z,97420.03
2022-09-23T08:19:18.051Z,97408.44
2022-09-23T08:21:47.635Z,97396.34
2022-09-23T08:24:16.953Z,97411.19
2022-09-23T08:26:45.433Z,97424.00
2022-09-23T08:29:14.252Z,97412.94
2022-09-23T08:31:42.626Z,97416.66
2022-09-23T08:34:10.567Z,97390.22
2022-09-23T08:36:38.508Z,97421.59
2022-09-23T08:39:06.632Z,97423.47
2022-09-23T08:41:58.832Z,97415.13
2022-09-23T08:44:45.973Z,97419.03
2022-09-23T08:47:43.858Z,97415.94
2022-09-23T08:50:19.226Z,97409.06
2022-09-23T08:52:55.293Z,97408.91
2022-09-23T08:55:35.807Z,97403.09
2022-09-23T08:58:24.441Z,97410.75
2022-09-23T09:01:10.751Z,97408.13
2022-09-23T09:03:53.827Z,97395.97
2022-09-23T09:06:31.170Z,97427.56
2022-09-23T09:09:01.064Z,97415.88
2022-09-23T09:11:35.344Z,97421.09
2022-09-23T09:14:17.622Z,97424.53
2022-09-23T09:16:59.420Z,97425.00
2022-09-23T09:19:52.650Z,97410.53
2022-09-23T09:22:41.612Z,97401.22
2022-09-23T09:25:15.645Z,97410.91
2022-09-23T09:27:43.714Z,97412.75
2022-09-23T09:30:14.753Z,97399.41
2022-09-23T09:33:03.031Z,97404.03
2022-09-23T09:35:55.032Z,97399.56
2022-09-23T09:38:23.010Z,97406.44
2022-09-23T09:40:50.787Z,97397.59
2022-09-23T09:43:25.584Z,97380.16
2022-09-23T09:45:59.285Z,97383.94
2022-09-23T09:48:39.946Z,97398.50
2022-09-23T09:51:24.315Z,97392.91
2022-09-23T09:53:52.698Z,97396.31
2022-09-23T09:56:42.183Z,97388.84
2022-09-23T09:59:18.543Z,97402.72
2022-09-23T10:01:46.957Z,97407.16
2022-09-23T10:04:29.494Z,97412.69
2022-09-23T10:07:09.916Z,97406.16
2022-09-23T10:09:38.412Z,97397.91
2022-09-23T10:12:18.713Z,97420.97
2022-09-23T10:14:47.391Z,97420.56
2022-09-23T10:17:17.944Z,97416.28
2022-09-23T10:20:00.997Z,97421.88
2022-09-23T10:22:39.077Z,97416.22
2022-09-23T10:25:16.506Z,97423.72
2022-09-23T10:27:45.642Z,97418.06
2022-09-23T10:30:26.546Z,97426.22
2022-09-23T10:32:57.417Z,97429.97
2022-09-23T10:35:25.557Z,97436.81
2022-09-23T10:37:57.254Z,97448.66
2022-09-23T10:44:11.511Z,97428.84
2022-09-23T10:46:49.421Z,97432.63
2022-09-23T10:49:38.909Z,97420.78
2022-09-23T10:52:12.290Z,97404.31
2022-09-23T10:54:51.861Z,97416.31
2022-09-23T10:57:40.758Z,97419.59
2022-09-23T11:00:17.930Z,97412.84
2022-09-23T11:03:00.874Z,97414.28
2022-09-23T11:05:37.700Z,97414.44
2022-09-23T11:08:18.432Z,97413.16
2022-09-23T11:11:16.995Z,97423.31
2022-09-23T11:14:17.358Z,97421.06
2022-09-23T11:17:22.253Z,97414.38
2022-09-23T11:20:21.391Z,97410.09
2022-09-23T11:22:48.978Z,97397.16
2022-09-23T11:25:30.346Z,97399.28
2022-09-23T11:28:23.316Z,97406.00
2022-09-23T11:31:14.724Z,97408.38
2022-09-23T11:33:42.618Z,97405.78
2022-09-23T11:36:14.813Z,97417.78
2022-09-23T11:38:45.106Z,97415.09
2022-09-23T11:41:20.335Z,97417.59
2022-09-23T11:43:52.402Z,97421.78
2022-09-23T11:46:32.874Z,97412.53
2022-09-23T11:49:27.247Z,97409.13
2022-09-23T11:52:13.104Z,97404.47
2022-09-23T11:54:45.448Z,97408.28
2022-09-23T11:57:29.582Z,97399.38
2022-09-23T12:00:06.949Z,97402.03
2022-09-23T12:02:42.046Z,97399.97
2022-09-23T12:05:13.098Z,97400.59
2022-09-23T12:07:40.783Z,97404.34
2022-09-23T12:10:08.735Z,97406.28
2022-09-23T12:12:39.079Z,97394.56
2022-09-23T12:15:39.560Z,97390.31
2022-09-23T12:18:23.410Z,97380.88
2022-09-23T12:21:06.245Z,97393.31
2022-09-23T12:23:48.889Z,97388.03
2022-09-23T12:26:19.067Z,97379.81
2022-09-23T12:28:49.997Z,97375.16
2022-09-23T12:31:22.204Z,97383.28
2022-09-23T12:33:53.770Z,97377.69
2022-09-23T12:36:35.561Z,97377.34
2022-09-23T12:39:17.578Z,97382.00
2022-09-23T12:41:49.314Z,97371.19
2022-09-23T12:44:23.422Z,97381.03
2022-09-23T12:47:14.154Z,97379.03
2022-09-23T12:49:42.748Z,97382.13
2022-09-23T12:52:13.675Z,97378.41
2022-09-23T12:54:42.551Z,97381.84
2022-09-23T12:57:39.862Z,97377.41
2022-09-23T13:00:11.380Z,97377.13
2022-09-23T13:03:20.647Z,97382.69
2022-09-23T13:06:11.283Z,97380.16
2022-09-23T13:08:40.523Z,97374.66
2022-09-23T13:11:28.563Z,97380.88
2022-09-23T13:13:57.957Z,97378.97
2022-09-23T13:16:30.387Z,97370.09
2022-09-23T13:19:24.227Z,97364.41
2022-09-23T13:21:55.047Z,97373.94
2022-09-23T13:24:22.813Z,97359.91
2022-09-23T13:26:54.466Z,97359.44
2022-09-23T13:29:27.682Z,97367.75
2022-09-23T13:31:57.992Z,97367.47
2022-09-23T13:34:27.709Z,97365.16
2022-09-23T13:36:55.276Z,97365.44
2022-09-23T13:39:24.728Z,97355.38
2022-09-23T13:42:03.031Z,97359.44
2022-09-23T13:44:30.858Z,97361.53
2022-09-23T13:46:59.511Z,97350.09
2022-09-23T13:49:35.417Z,97350.72
2022-09-23T13:52:03.313Z,97360.94
2022-09-23T13:54:47.261Z,97356.09
2022-09-23T13:57:34.609Z,97359.81
2022-09-23T14:00:16.600Z,97359.53
2022-09-23T14:02:44.480Z,97357.13
2022-09-23T14:05:13.262Z,97349.75
2022-09-23T14:07:40.989Z,97358.53
2022-09-23T14:10:08.798Z,97351.50
2022-09-23T14:12:39.528Z,97352.38
2022-09-23T14:15:14.015Z,97354.94
2022-09-23T14:17:46.034Z,97348.84
2022-09-23T14:20:17.522Z,97352.03
2022-09-23T14:22:45.327Z,97350.47
2022-09-23T14:25:14.614Z,97343.81
2022-09-23T14:27:42.552Z,97348.47
2022-09-23T14:30:18.012Z,97347.56
2022-09-23T14:32:47.997Z,97340.56
2022-09-23T14:35:20.239Z,97332.25
2022-09-23T14:38:08.540Z,97336.03
2022-09-23T14:40:53.592Z,97343.06
2022-09-23T14:43:24.014Z,97346.84
2022-09-23T14:45:56.481Z,97353.78
2022-09-23T14:48:28.214Z,97348.91
2022-09-23T14:51:00.496Z,97351.69
2022-09-23T14:53:39.936Z,97344.25
2022-09-23T14:56:08.702Z,97342.19
2022-09-23T14:58:56.494Z,97350.16
2022-09-23T15:01:27.866Z,97347.88
2022-09-23T15:04:00.008Z,97349.28
2022-09-23T15:06:27.640Z,97351.97
2022-09-23T15:08:55.599Z,97356.44
2022-09-23T15:11:23.355Z,97357.53
2022-09-23T15:13:51.797Z,97354.22
2022-09-23T15:16:28.610Z,97355.69
2022-09-23T15:19:00.064Z,97356.44
2022-09-23T15:21:41.093Z,97345.84
2022-09-23T15:24:38.400Z,97358.38
2022-09-23T15:27:29.693Z,97355.63
2022-09-23T15:30:15.589Z,97353.72
2022-09-23T15:32:44.910Z,97359.69
2022-09-23T15:35:18.856Z,97355.13
2022-09-23T15:37:47.304Z,97358.81
2022-09-23T15:40:26.262Z,97365.34
2022-09-23T15:42:58.722Z,97364.56
2022-09-23T15:45:32.055Z,97353.84
2022-09-23T15:48:07.459Z,97370.31
2022-09-23T15:50:36.109Z,97369.72
2022-09-23T15:53:04.874Z,97359.31
2022-09-23T15:55:33.779Z,97361.00
2022-09-23T15:58:01.367Z,97371.34
2022-09-23T16:00:29.433Z,97373.69
2022-09-23T16:02:57.039Z,97368.06
2022-09-23T16:05:37.836Z,97370.94
2022-09-23T16:08:09.041Z,97364.91
2022-09-23T16:10:37.554Z,97371.25
2022-09-23T16:13:13.126Z,97373.06
2022-09-23T16:15:40.916Z,97374.28
2022-09-23T16:18:09.496Z,97382.63
2022-09-23T16:20:38.937Z,97374.31
2022-09-23T16:23:08.957Z,97376.94
2022-09-23T16:25:36.773Z,97372.31
2022-09-23T16:28:04.822Z,97376.38
2022-09-23T16:30:33.599Z,97379.00
2022-09-23T16:33:02.122Z,97384.28
2022-09-23T16:35:39.045Z,97382.47
2022-09-23T16:38:07.792Z,97382.47
2022-09-23T16:40:35.526Z,97385.28
2022-09-23T16:43:05.526Z,97384.69
2022-09-23T16:45:33.460Z,97386.47
2022-09-23T16:48:01.433Z,97371.84
2022-09-23T16:50:29.712Z,97385.63
2022-09-23T16:52:57.488Z,97392.09
2022-09-23T16:55:25.801Z,97396.13
2022-09-23T16:57:54.238Z,97392.28
2022-09-23T17:00:40.973Z,97401.16
2022-09-23T17:03:29.472Z,97399.72
2022-09-23T17:05:57.501Z,97410.63
2022-09-23T17:08:25.106Z,97415.41
2022-09-23T17:10:58.642Z,97412.97
2022-09-23T17:13:27.329Z,97419.81
2022-09-23T17:15:55.146Z,97413.47
2022-09-23T17:18:23.117Z,97416.25
2022-09-23T17:21:03.906Z,97415.63
2022-09-23T17:23:33.590Z,97415.44
2022-09-23T17:26:01.770Z,97420.78
2022-09-23T17:28:29.400Z,97419.16
